createdAt,value
2022-08-20T00:00:28.012Z,20.6
2022-08-20T00:01:28.063Z,20.6
2022-08-20T00:02:27.943Z,20.6
2022-08-20T00:03:28.033Z,20.5
2022-08-20T00:04:28.083Z,20.4
2022-08-20T00:05:28.297Z,20.4
2022-08-20T00:06:28.090Z,20.5
2022-08-20T00:07:28.246Z,20.6
2022-08-20T00:08:28.296Z,20.7
2022-08-20T00:09:28.449Z,20.5
2022-08-20T00:10:28.523Z,20.3
2022-08-20T00:11:28.997Z,20.3
2022-08-20T00:12:28.518Z,20.4
2022-08-20T00:13:31.888Z,20.7
2022-08-20T00:14:28.601Z,20.8
2022-08-20T00:15:28.951Z,20.8
2022-08-20T00:16:28.996Z,20.6
2022-08-20T00:17:34.886Z,20.6
2022-08-20T00:18:28.979Z,20.8
2022-08-20T00:19:30.227Z,20.6
2022-08-20T00:20:28.968Z,20.6
2022-08-20T00:21:29.015Z,20.5
2022-08-20T00:22:29.085Z,20.4
2022-08-20T00:23:29.414Z,20.4
2022-08-20T00:24:29.456Z,20.4
2022-08-20T00:25:29.520Z,20.6
2022-08-20T00:26:29.278Z,20.6
2022-08-20T00:27:34.397Z,20.7
2022-08-20T00:28:29.978Z,20.6
2022-08-20T00:29:29.970Z,20.5
2022-08-20T00:30:34.633Z,20.4
2022-08-20T00:31:30.264Z,20.4
2022-08-20T00:32:29.866Z,20.4
2022-08-20T00:33:30.402Z,20.5
2022-08-20T00:34:29.766Z,20.6
2022-08-20T00:35:35.268Z,20.5
2022-08-20T00:36:37.181Z,20.5
2022-08-20T00:37:29.915Z,20.5
2022-08-20T00:38:30.199Z,20.3
2022-08-20T00:39:34.304Z,20.2
2022-08-20T00:40:30.500Z,20.2
2022-08-20T00:41:30.336Z,20.4
2022-08-20T00:42:30.793Z,20.4
2022-08-20T00:43:30.458Z,20.3
2022-08-20T00:44:30.408Z,20.3
2022-08-20T00:45:30.365Z,20.3
2022-08-20T00:46:31.519Z,20.1
2022-08-20T00:47:30.545Z,20
2022-08-20T00:48:30.617Z,20.1
2022-08-20T00:49:30.651Z,20
2022-08-20T00:50:30.707Z,20.2
2022-08-20T00:51:30.757Z,20.1
2022-08-20T00:52:31.071Z,20.1
2022-08-20T00:53:30.862Z,20
2022-08-20T00:54:30.920Z,20.1
2022-08-20T00:55:31.698Z,20.1
2022-08-20T00:56:31.061Z,20.2
2022-08-20T00:57:44.590Z,20.2
2022-08-20T00:58:36.453Z,20.1
2022-08-20T00:59:31.285Z,20.2
2022-08-20T01:00:31.818Z,20.4
2022-08-20T01:01:55.360Z,20.4
2022-08-20T01:02:36.601Z,20.3
2022-08-20T01:03:41.511Z,20.3
2022-08-20T01:04:31.763Z,20.2
2022-08-20T01:05:31.570Z,20.2
2022-08-20T01:06:31.888Z,20.1
2022-08-20T01:07:31.709Z,20.2
2022-08-20T01:08:31.754Z,20.2
2022-08-20T01:09:50.379Z,20.2
2022-08-20T01:10:32.781Z,20.2
2022-08-20T01:11:36.906Z,20.1
2022-08-20T01:12:32.114Z,20
2022-08-20T01:13:33.055Z,20.1
2022-08-20T01:14:33.172Z,20.3
2022-08-20T01:15:32.430Z,20.2
2022-08-20T01:16:45.833Z,20.2
2022-08-20T01:17:32.339Z,20.2
2022-08-20T01:18:32.334Z,20.1
2022-08-20T01:19:32.462Z,20
2022-08-20T01:20:37.457Z,20.1
2022-08-20T01:21:32.515Z,20.2
2022-08-20T01:22:32.858Z,20.4
2022-08-20T01:23:32.662Z,20.5
2022-08-20T01:24:32.699Z,20.3
2022-08-20T01:25:32.710Z,20.3
2022-08-20T01:26:37.797Z,20.1
2022-08-20T01:27:33.652Z,20.1
2022-08-20T01:28:33.318Z,20.2
2022-08-20T01:29:33.120Z,20.1
2022-08-20T01:30:33.640Z,20.1
2022-08-20T01:31:34.276Z,20.2
2022-08-20T01:32:33.109Z,20
2022-08-20T01:33:33.185Z,20.1
2022-08-20T01:34:33.518Z,20.1
2022-08-20T01:35:33.275Z,20.1
2022-08-20T01:36:33.329Z,20.1
2022-08-20T01:37:38.912Z,20
2022-08-20T01:38:33.799Z,20
2022-08-20T01:39:33.666Z,20
2022-08-20T01:40:33.846Z,20.1
2022-08-20T01:41:33.924Z,20.3
2022-08-20T01:42:38.718Z,20.3
2022-08-20T01:43:43.863Z,20.4
2022-08-20T01:44:47.224Z,20.3
2022-08-20T01:45:33.956Z,20.2
2022-08-20T01:46:35.673Z,20.1
2022-08-20T01:48:34.640Z,19.9
2022-08-20T01:49:44.118Z,19.9
2022-08-20T01:50:34.262Z,19.9
2022-08-20T01:51:34.198Z,19.8
2022-08-20T01:52:39.283Z,20
2022-08-20T01:53:34.619Z,20.1
2022-08-20T01:54:42.560Z,20.1
2022-08-20T01:55:34.908Z,20
2022-08-20T01:56:35.017Z,20
2022-08-20T01:57:34.562Z,20
2022-08-20T01:58:34.646Z,20.1
2022-08-20T01:59:37.201Z,20
2022-08-20T02:00:34.800Z,20
2022-08-20T02:01:45.841Z,19.8
2022-08-20T02:02:39.893Z,19.9
2022-08-20T02:03:38.116Z,20.1
2022-08-20T02:04:35.013Z,20.2
2022-08-20T02:05:35.107Z,20.2
2022-08-20T02:06:35.106Z,20.1
2022-08-20T02:07:35.655Z,20.1
2022-08-20T02:08:38.398Z,20.1
2022-08-20T02:09:35.284Z,20.1
2022-08-20T02:10:35.927Z,20.1
2022-08-20T02:11:35.469Z,20.1
2022-08-20T02:12:35.580Z,20.2
2022-08-20T02:13:36.028Z,20.2
2022-08-20T02:14:36.639Z,20.2
2022-08-20T02:15:37.293Z,20
2022-08-20T02:16:35.975Z,20
2022-08-20T02:17:37.207Z,19.9
2022-08-20T02:18:35.844Z,19.8
2022-08-20T02:19:36.142Z,19.7
2022-08-20T02:20:36.336Z,19.7
2022-08-20T02:21:36.076Z,19.6
2022-08-20T02:22:36.582Z,19.6
2022-08-20T02:23:36.240Z,19.7
2022-08-20T02:24:36.123Z,19.6
2022-08-20T02:25:36.258Z,19.5
2022-08-20T02:26:36.581Z,19.5
2022-08-20T02:27:36.377Z,19.5
2022-08-20T02:28:36.396Z,19.5
2022-08-20T02:29:36.573Z,19.6
2022-08-20T02:30:36.511Z,19.7
2022-08-20T02:31:36.566Z,19.5
2022-08-20T02:32:36.863Z,19.5
2022-08-20T02:33:36.759Z,19.5
2022-08-20T02:34:37.026Z,19.5
2022-08-20T02:35:36.970Z,19.7
2022-08-20T02:36:41.864Z,19.7
2022-08-20T02:37:37.144Z,19.8
2022-08-20T02:38:41.917Z,19.9
2022-08-20T02:39:38.187Z,19.7
2022-08-20T02:40:37.222Z,19.5
2022-08-20T02:41:37.143Z,19.7
2022-08-20T02:42:37.486Z,19.7
2022-08-20T02:43:38.410Z,19.4
2022-08-20T02:44:37.517Z,19.4
2022-08-20T02:45:37.471Z,19.4
2022-08-20T02:46:37.411Z,19.5
2022-08-20T02:47:37.452Z,19.3
2022-08-20T02:48:37.524Z,19.3
2022-08-20T02:49:37.762Z,19.3
2022-08-20T02:50:39.672Z,19.3
2022-08-20T02:51:37.714Z,19.5
2022-08-20T02:52:37.747Z,19.5
2022-08-20T02:53:37.794Z,19.4
2022-08-20T02:54:38.040Z,19.3
2022-08-20T02:55:37.882Z,19.2
2022-08-20T02:56:37.979Z,19.3
2022-08-20T02:57:38.061Z,19.3
2022-08-20T02:58:38.087Z,19.5
2022-08-20T02:59:38.291Z,19.6
2022-08-20T03:00:38.806Z,19.5
2022-08-20T03:01:38.296Z,19.5
2022-08-20T03:02:38.367Z,19.5
2022-08-20T03:03:38.370Z,19.5
2022-08-20T03:04:38.373Z,19.5
2022-08-20T03:05:38.727Z,19.6
2022-08-20T03:06:38.519Z,19.7
2022-08-20T03:07:38.553Z,19.6
2022-08-20T03:08:38.592Z,19.7
2022-08-20T03:09:38.927Z,19.8
2022-08-20T03:10:39.403Z,19.8
2022-08-20T03:11:40.467Z,19.8
2022-08-20T03:12:39.119Z,19.9
2022-08-20T03:13:38.905Z,19.8
2022-08-20T03:14:38.950Z,19.7
2022-08-20T03:15:39.181Z,19.7
2022-08-20T03:16:39.105Z,19.7
2022-08-20T03:17:39.100Z,19.7
2022-08-20T03:18:51.960Z,19.6
2022-08-20T03:19:57.388Z,19.6
2022-08-20T03:21:09.950Z,19.6
2022-08-20T03:21:50.445Z,19.6
2022-08-20T03:22:39.601Z,19.7
2022-08-20T03:23:40.409Z,19.7
2022-08-20T03:24:39.526Z,19.7
2022-08-20T03:25:39.582Z,19.5
2022-08-20T03:26:39.672Z,19.5
2022-08-20T03:28:49.332Z,19.3
2022-08-20T03:29:30.821Z,19.3
2022-08-20T03:29:39.794Z,19.3
2022-08-20T03:30:40.887Z,19.3
2022-08-20T03:31:41.363Z,19.4
2022-08-20T03:33:05.895Z,19.4
2022-08-20T03:33:48.975Z,19.4
2022-08-20T03:34:40.094Z,19.4
2022-08-20T03:35:40.364Z,19.5
2022-08-20T03:36:40.183Z,19.6
2022-08-20T03:37:40.226Z,19.6
2022-08-20T03:38:40.550Z,19.5
2022-08-20T03:39:40.720Z,19.5
2022-08-20T03:40:42.173Z,19.4
2022-08-20T03:41:40.558Z,19.4
2022-08-20T03:42:40.950Z,19.4
2022-08-20T03:43:40.658Z,19.4
2022-08-20T03:44:42.858Z,19.4
2022-08-20T03:46:05.028Z,19.2
2022-08-20T03:47:42.199Z,19.3
2022-08-20T03:48:42.233Z,19.2
2022-08-20T03:49:40.998Z,19.2
2022-08-20T03:50:41.330Z,19.1
2022-08-20T03:51:45.831Z,19.1
2022-08-20T03:52:41.769Z,19.1
2022-08-20T03:53:41.513Z,19.1
2022-08-20T03:54:41.569Z,19
2022-08-20T03:55:41.380Z,19
2022-08-20T03:56:46.397Z,19
2022-08-20T03:57:46.969Z,19
2022-08-20T03:58:41.758Z,18.9
2022-08-20T03:59:41.585Z,19
2022-08-20T04:00:42.592Z,18.9
2022-08-20T04:01:44.723Z,19
2022-08-20T04:02:43.054Z,19
2022-08-20T04:03:41.790Z,19
2022-08-20T04:04:43.352Z,19
2022-08-20T04:05:41.913Z,19.1
2022-08-20T04:06:42.481Z,19.2
2022-08-20T04:07:41.990Z,19.2
2022-08-20T04:08:42.047Z,19.1
2022-08-20T04:09:42.329Z,19
2022-08-20T04:10:47.148Z,19
2022-08-20T04:11:42.193Z,19
2022-08-20T04:12:52.805Z,19.1
2022-08-20T04:13:42.623Z,19.1
2022-08-20T04:14:42.450Z,19.1
2022-08-20T04:15:42.522Z,19.1
2022-08-20T04:16:42.680Z,19.1
2022-08-20T04:17:42.864Z,19
2022-08-20T04:18:56.142Z,19.1
2022-08-20T04:19:42.762Z,19.1
2022-08-20T04:20:42.776Z,19
2022-08-20T04:21:42.861Z,18.9
2022-08-20T04:22:42.882Z,18.9
2022-08-20T04:23:43.040Z,18.9
2022-08-20T04:24:56.535Z,18.9
2022-08-20T04:25:43.345Z,18.8
2022-08-20T04:26:43.186Z,18.8
2022-08-20T04:27:43.447Z,18.9
2022-08-20T04:28:43.254Z,18.9
2022-08-20T04:29:43.466Z,19
2022-08-20T04:31:28.816Z,19.1
2022-08-20T04:31:43.474Z,19.3
2022-08-20T04:32:43.478Z,19.2
2022-08-20T04:33:43.861Z,19.1
2022-08-20T04:34:43.615Z,18.9
2022-08-20T04:35:43.645Z,18.9
2022-08-20T04:36:43.734Z,18.9
2022-08-20T04:37:43.747Z,19
2022-08-20T04:38:47.722Z,18.9
2022-08-20T04:39:44.045Z,18.9
2022-08-20T04:40:43.919Z,19
2022-08-20T04:41:43.990Z,18.9
2022-08-20T04:42:44.006Z,19
2022-08-20T04:43:44.076Z,19
2022-08-20T04:44:44.308Z,19
2022-08-20T04:45:44.286Z,19.1
2022-08-20T04:46:44.451Z,19.2
2022-08-20T04:47:44.301Z,19.2
2022-08-20T04:48:48.569Z,19.1
2022-08-20T04:49:44.945Z,18.9
2022-08-20T04:50:44.613Z,18.8
2022-08-20T04:51:44.637Z,18.9
2022-08-20T04:52:44.712Z,18.8
2022-08-20T04:53:44.748Z,18.8
2022-08-20T04:54:44.820Z,18.9
2022-08-20T04:55:44.851Z,18.9
2022-08-20T04:56:45.167Z,18.9
2022-08-20T04:57:44.946Z,18.9
2022-08-20T04:58:44.998Z,18.9
2022-08-20T04:59:45.011Z,18.9
2022-08-20T05:00:45.130Z,18.8
2022-08-20T05:01:45.390Z,18.8
2022-08-20T05:02:45.270Z,18.9
2022-08-20T05:03:45.325Z,18.9
2022-08-20T05:04:47.927Z,18.9
2022-08-20T05:05:45.468Z,18.9
2022-08-20T05:06:46.433Z,18.9
2022-08-20T05:07:45.507Z,19
2022-08-20T05:08:45.519Z,19
2022-08-20T05:09:45.561Z,19
2022-08-20T05:10:45.617Z,18.9
2022-08-20T05:11:45.923Z,18.9
2022-08-20T05:12:55.119Z,18.9
2022-08-20T05:13:46.394Z,18.9
2022-08-20T05:14:45.890Z,18.9
2022-08-20T05:15:45.914Z,19
2022-08-20T05:16:46.098Z,19.1
2022-08-20T05:17:46.019Z,19.2
2022-08-20T05:18:46.082Z,19.2
2022-08-20T05:19:46.264Z,19.2
2022-08-20T05:20:46.569Z,19.2
2022-08-20T05:21:46.531Z,19.1
2022-08-20T05:22:46.405Z,19.1
2022-08-20T05:23:46.569Z,19
2022-08-20T05:24:46.829Z,18.9
2022-08-20T05:25:47.898Z,18.8
2022-08-20T05:26:46.620Z,18.8
2022-08-20T05:27:47.847Z,18.9
2022-08-20T05:28:52.744Z,18.9
2022-08-20T05:29:46.887Z,18.9
2022-08-20T05:30:47.642Z,18.9
2022-08-20T05:31:47.348Z,19
2022-08-20T05:32:47.220Z,19.1
2022-08-20T05:33:47.012Z,19
2022-08-20T05:34:47.980Z,19.1
2022-08-20T05:35:47.417Z,19.1
2022-08-20T05:36:48.150Z,19.1
2022-08-20T05:37:47.631Z,19.2
2022-08-20T05:39:02.655Z,19
2022-08-20T05:39:49.057Z,19.1
2022-08-20T05:40:52.845Z,19.1
2022-08-20T05:42:07.559Z,19
2022-08-20T05:43:00.264Z,18.8
2022-08-20T05:43:48.897Z,19
2022-08-20T05:44:51.575Z,18.9
2022-08-20T05:45:47.720Z,18.9
2022-08-20T05:46:47.736Z,18.8
2022-08-20T05:47:48.137Z,18.8
2022-08-20T05:48:47.909Z,18.9
2022-08-20T05:49:48.087Z,19
2022-08-20T05:50:47.985Z,18.9
2022-08-20T05:51:53.183Z,18.9
2022-08-20T05:52:48.086Z,18.8
2022-08-20T05:53:48.153Z,19
2022-08-20T05:54:48.382Z,19.2
2022-08-20T05:55:48.562Z,19.3
2022-08-20T05:56:48.336Z,19.3
2022-08-20T05:57:48.452Z,19.3
2022-08-20T05:58:48.474Z,19.2
2022-08-20T05:59:48.508Z,19.1
2022-08-20T06:00:48.966Z,19.1
2022-08-20T06:01:48.634Z,19
2022-08-20T06:02:48.722Z,19.1
2022-08-20T06:03:49.067Z,19.1
2022-08-20T06:04:55.976Z,19
2022-08-20T06:05:49.082Z,19.1
2022-08-20T06:06:49.602Z,19.1
2022-08-20T06:07:50.462Z,19
2022-08-20T06:08:49.587Z,19
2022-08-20T06:09:49.331Z,19
2022-08-20T06:10:49.317Z,19.1
2022-08-20T06:11:59.054Z,19.1
2022-08-20T06:12:49.639Z,19.3
2022-08-20T06:13:49.591Z,19.4
2022-08-20T06:14:49.927Z,19.4
2022-08-20T06:15:49.595Z,19.2
2022-08-20T06:16:57.495Z,19.1
2022-08-20T06:17:51.215Z,19
2022-08-20T06:18:49.705Z,18.9
2022-08-20T06:19:49.905Z,18.9
2022-08-20T06:20:49.725Z,19.1
2022-08-20T06:21:49.769Z,19.1
2022-08-20T06:22:55.054Z,19.1
2022-08-20T06:23:57.009Z,19.1
2022-08-20T06:24:49.954Z,19.2
2022-08-20T06:25:49.982Z,19.2
2022-08-20T06:26:58.197Z,19.2
2022-08-20T06:27:50.389Z,19.1
2022-08-20T06:28:50.144Z,19
2022-08-20T06:29:50.202Z,19
2022-08-20T06:30:50.232Z,19
2022-08-20T06:31:50.984Z,19
2022-08-20T06:32:55.333Z,19.1
2022-08-20T06:34:00.438Z,19.1
2022-08-20T06:34:51.107Z,19.2
2022-08-20T06:35:50.559Z,19.1
2022-08-20T06:36:51.612Z,19.1
2022-08-20T06:37:50.784Z,19
2022-08-20T06:38:50.874Z,18.6
2022-08-20T06:39:51.033Z,18.5
2022-08-20T06:40:51.110Z,18.5
2022-08-20T06:41:51.092Z,18.4
2022-08-20T06:42:56.131Z,18.5
2022-08-20T06:43:51.216Z,18.6
2022-08-20T06:44:51.310Z,18.6
2022-08-20T06:45:51.641Z,18.6
2022-08-20T06:46:51.493Z,18.5
2022-08-20T06:47:51.519Z,18.5
2022-08-20T06:48:51.647Z,18.5
2022-08-20T06:49:52.627Z,18.6
2022-08-20T06:50:51.826Z,18.6
2022-08-20T06:51:56.809Z,18.6
2022-08-20T06:52:55.712Z,18.5
2022-08-20T06:53:51.866Z,18.5
2022-08-20T06:54:51.909Z,18.5
2022-08-20T06:55:52.015Z,18.5
2022-08-20T06:56:52.003Z,18.4
2022-08-20T06:57:52.310Z,18.4
2022-08-20T06:58:57.025Z,18.5
2022-08-20T06:59:54.211Z,18.5
2022-08-20T07:07:34.142Z,18.6
2022-08-20T07:07:52.553Z,18.6
2022-08-20T07:08:52.789Z,18.5
2022-08-20T07:09:52.624Z,18.5
2022-08-20T07:10:57.820Z,18.5
2022-08-20T07:11:52.957Z,18.6
2022-08-20T07:12:52.880Z,18.6
2022-08-20T07:13:52.844Z,18.5
2022-08-20T07:14:52.913Z,18.5
2022-08-20T07:15:54.176Z,18.4
2022-08-20T07:16:53.113Z,18.3
2022-08-20T07:17:55.512Z,18.3
2022-08-20T07:18:53.307Z,18.4
2022-08-20T07:19:53.325Z,18.3
2022-08-20T07:20:53.351Z,18.5
2022-08-20T07:21:53.429Z,18.4
2022-08-20T07:22:53.599Z,18.4
2022-08-20T07:23:58.522Z,18.5
2022-08-20T07:24:53.606Z,18.5
2022-08-20T07:25:53.683Z,18.5
2022-08-20T07:26:56.887Z,18.6
2022-08-20T07:27:54.844Z,18.6
2022-08-20T07:28:58.964Z,18.7
2022-08-20T07:29:54.516Z,18.6
2022-08-20T07:30:56.283Z,18.6
2022-08-20T07:31:54.269Z,18.7
2022-08-20T07:32:54.119Z,18.7
2022-08-20T07:33:54.122Z,18.6
2022-08-20T07:34:54.149Z,18.6
2022-08-20T07:35:54.255Z,18.7
2022-08-20T07:36:54.301Z,18.8
2022-08-20T07:37:54.381Z,18.8
2022-08-20T07:38:54.407Z,18.8
2022-08-20T07:39:54.552Z,18.6
2022-08-20T07:40:54.497Z,18.5
2022-08-20T07:41:56.510Z,18.6
2022-08-20T07:42:54.824Z,18.5
2022-08-20T07:43:54.684Z,18.6
2022-08-20T07:44:54.741Z,18.7
2022-08-20T07:45:54.791Z,18.7
2022-08-20T07:46:54.887Z,18.8
2022-08-20T07:47:54.958Z,18.8
2022-08-20T07:48:54.997Z,18.8
2022-08-20T07:49:55.068Z,18.7
2022-08-20T07:50:55.150Z,18.7
2022-08-20T07:51:55.177Z,18.6
2022-08-20T07:52:55.443Z,18.7
2022-08-20T07:53:55.359Z,18.7
2022-08-20T07:54:55.388Z,18.6
2022-08-20T07:55:57.117Z,18.5
2022-08-20T07:56:55.520Z,18.6
2022-08-20T07:57:55.585Z,18.6
2022-08-20T07:59:00.619Z,18.6
2022-08-20T07:59:55.678Z,18.5
2022-08-20T08:00:55.795Z,18.5
2022-08-20T08:01:55.832Z,18.5
2022-08-20T08:02:56.068Z,18.6
2022-08-20T08:03:55.990Z,18.5
2022-08-20T08:04:56.047Z,18.5
2022-08-20T08:05:59.836Z,18.4
2022-08-20T08:06:56.129Z,18.4
2022-08-20T08:07:56.780Z,18.6
2022-08-20T08:09:01.495Z,18.7
2022-08-20T08:09:57.558Z,18.7
2022-08-20T08:10:56.356Z,18.8
2022-08-20T08:11:56.387Z,18.8
2022-08-20T08:13:06.644Z,18.9
2022-08-20T08:13:56.656Z,19
2022-08-20T08:14:58.393Z,19
2022-08-20T08:16:01.424Z,18.9
2022-08-20T08:16:56.731Z,19
2022-08-20T08:17:56.781Z,19
2022-08-20T08:18:57.121Z,19.1
2022-08-20T08:19:57.121Z,19.3
2022-08-20T08:20:57.160Z,19.2
2022-08-20T08:21:56.983Z,19.4
2022-08-20T08:22:57.187Z,19.6
2022-08-20T08:23:57.092Z,19.4
2022-08-20T08:24:57.777Z,19.5
2022-08-20T08:25:57.232Z,19.5
2022-08-20T08:26:57.283Z,19.7
2022-08-20T08:28:02.365Z,19.8
2022-08-20T08:28:57.430Z,19.8
2022-08-20T08:29:58.052Z,19.7
2022-08-20T08:30:57.545Z,19.7
2022-08-20T08:31:57.624Z,19.9
2022-08-20T08:32:57.854Z,20.1
2022-08-20T08:33:57.666Z,19.8
2022-08-20T08:34:57.831Z,19.8
2022-08-20T08:35:57.767Z,20.2
2022-08-20T08:36:57.835Z,20.3
2022-08-20T08:38:02.957Z,20.2
2022-08-20T08:38:59.138Z,20.3
2022-08-20T08:39:58.080Z,20.4
2022-08-20T08:40:59.881Z,20.5
2022-08-20T08:41:58.102Z,20.3
2022-08-20T08:42:58.489Z,20.2
2022-08-20T08:45:29.250Z,20.2
2022-08-20T08:45:58.340Z,20.3
2022-08-20T08:46:58.539Z,20.6
2022-08-20T08:48:00.093Z,21.2
2022-08-20T08:48:58.707Z,21.3
2022-08-20T08:49:58.552Z,20.8
2022-08-20T08:51:00.686Z,20.8
2022-08-20T08:52:08.478Z,20.7
2022-08-20T08:52:58.804Z,20.7
2022-08-20T08:54:04.714Z,20.6
2022-08-20T08:55:10.154Z,20.6
2022-08-20T08:55:58.979Z,20.8
2022-08-20T08:57:01.644Z,20.6
2022-08-20T08:57:58.996Z,20.6
2022-08-20T08:58:59.106Z,20.6
2022-08-20T09:00:03.669Z,20.6
2022-08-20T09:01:01.752Z,20.5
2022-08-20T09:02:00.866Z,20.6
2022-08-20T09:03:01.117Z,20.5
2022-08-20T09:03:59.934Z,20.5
2022-08-20T09:04:59.733Z,20.4
2022-08-20T09:06:04.521Z,20.3
2022-08-20T09:07:00.095Z,20.3
2022-08-20T09:08:02.165Z,20.2
2022-08-20T09:09:01.748Z,20.2
2022-08-20T09:09:59.732Z,20.3
2022-08-20T09:11:00.079Z,20.1
2022-08-20T09:12:00.940Z,20.1
2022-08-20T09:13:00.138Z,20.2
2022-08-20T09:14:02.123Z,20.5
2022-08-20T09:15:00.294Z,20.6
2022-08-20T09:16:05.429Z,20.4
2022-08-20T09:17:00.614Z,20.2
2022-08-20T09:18:00.444Z,20.1
2022-08-20T09:19:03.129Z,20.3
2022-08-20T09:20:00.313Z,20.5
2022-08-20T09:21:01.724Z,20.4
2022-08-20T09:22:00.623Z,20.4
2022-08-20T09:23:01.850Z,20.4
2022-08-20T09:24:00.528Z,20.6
2022-08-20T09:25:01.630Z,20.7
2022-08-20T09:26:00.626Z,20.8
2022-08-20T09:27:00.902Z,20.9
2022-08-20T09:28:02.177Z,20.8
2022-08-20T09:29:00.776Z,20.7
2022-08-20T09:30:00.853Z,20.6
2022-08-20T09:31:00.887Z,20.4
2022-08-20T09:32:00.910Z,20.2
2022-08-20T09:33:02.632Z,20.2
2022-08-20T09:34:01.107Z,20.1
2022-08-20T09:35:09.423Z,20
2022-08-20T09:36:01.139Z,19.9
2022-08-20T09:37:06.362Z,20
2022-08-20T09:38:12.116Z,19.9
2022-08-20T09:39:02.891Z,19.8
2022-08-20T09:40:01.916Z,20
2022-08-20T09:41:05.100Z,20.3
2022-08-20T09:42:01.562Z,20.7
2022-08-20T09:43:01.587Z,21.1
2022-08-20T09:44:01.561Z,21.4
2022-08-20T09:45:03.680Z,21.6
2022-08-20T09:46:02.754Z,21.6
2022-08-20T09:47:01.805Z,21.6
2022-08-20T09:48:01.781Z,21.9
2022-08-20T09:49:04.177Z,21.6
2022-08-20T09:50:01.881Z,21.5
2022-08-20T09:51:01.932Z,21.5
2022-08-20T09:52:03.406Z,21.1
2022-08-20T09:53:21.483Z,20.8
2022-08-20T09:54:02.224Z,20.8
2022-08-20T09:55:02.399Z,20.8
2022-08-20T09:56:02.518Z,20.7
2022-08-20T09:57:10.321Z,20.6
2022-08-20T09:58:03.681Z,20.6
2022-08-20T09:59:19.126Z,20.9
2022-08-20T10:00:02.453Z,21.6
2022-08-20T10:01:03.850Z,22.2
2022-08-20T10:02:02.766Z,22.1
2022-08-20T10:03:02.707Z,22.2
2022-08-20T10:04:03.020Z,22.1
2022-08-20T10:05:04.946Z,21.9
2022-08-20T10:06:03.788Z,22
2022-08-20T10:07:02.877Z,21.8
2022-08-20T10:08:03.916Z,21.9
2022-08-20T10:09:05.360Z,21.9
2022-08-20T10:10:03.622Z,21.7
2022-08-20T10:11:03.097Z,21.5
2022-08-20T10:12:03.200Z,21.4
2022-08-20T10:13:04.699Z,21.5
2022-08-20T10:14:03.276Z,21.3
2022-08-20T10:15:03.647Z,21.2
2022-08-20T10:16:03.953Z,21.2
2022-08-20T10:17:03.411Z,21
2022-08-20T10:18:03.504Z,20.8
2022-08-20T10:19:03.491Z,20.8
2022-08-20T10:20:03.532Z,21.1
2022-08-20T10:21:05.194Z,21.3
2022-08-20T10:22:03.665Z,21.6
2022-08-20T10:23:05.739Z,22.1
2022-08-20T10:24:04.251Z,22.3
2022-08-20T10:25:03.858Z,22.6
2022-08-20T10:26:04.244Z,22.6
2022-08-20T10:27:03.973Z,22.8
2022-08-20T10:28:04.044Z,22.8
2022-08-20T10:29:07.648Z,22.7
2022-08-20T10:30:09.138Z,22.9
2022-08-20T10:31:05.075Z,22.9
2022-08-20T10:32:04.268Z,22.8
2022-08-20T10:33:04.298Z,22.9
2022-08-20T10:34:04.632Z,22.9
2022-08-20T10:35:16.582Z,22.6
2022-08-20T10:36:04.690Z,22.3
2022-08-20T10:37:10.324Z,22.1
2022-08-20T10:38:04.952Z,21.9
2022-08-20T10:40:04.931Z,21.6
2022-08-20T10:41:05.571Z,21.6
2022-08-20T10:42:06.997Z,21.6
2022-08-20T10:43:05.194Z,21.7
2022-08-20T10:44:04.980Z,21.5
2022-08-20T10:45:05.494Z,21.4
2022-08-20T10:46:05.071Z,21.4
2022-08-20T10:47:05.800Z,21.3
2022-08-20T10:48:05.174Z,21.3
2022-08-20T10:49:05.464Z,21.3
2022-08-20T10:50:05.496Z,21.7
2022-08-20T10:51:05.356Z,22.3
2022-08-20T10:52:05.994Z,22.3
2022-08-20T10:53:10.429Z,22.2
2022-08-20T10:54:08.175Z,21.9
2022-08-20T10:55:08.346Z,22.2
2022-08-20T10:56:05.839Z,22.8
2022-08-20T10:57:07.226Z,23.1
2022-08-20T10:58:15.927Z,23.1
2022-08-20T10:59:05.970Z,22.8
2022-08-20T11:00:10.813Z,22.7
2022-08-20T11:01:05.997Z,22.7
2022-08-20T11:02:21.010Z,22.4
2022-08-20T11:03:06.115Z,22
2022-08-20T11:04:08.760Z,21.7
2022-08-20T11:05:06.581Z,21.8
2022-08-20T11:06:11.143Z,21.8
2022-08-20T11:07:06.868Z,21.6
2022-08-20T11:08:06.506Z,21.5
2022-08-20T11:09:12.248Z,21.5
2022-08-20T11:10:13.141Z,21.8
2022-08-20T11:11:06.558Z,22.4
2022-08-20T11:12:06.758Z,22.8
2022-08-20T11:13:06.845Z,23.1
2022-08-20T11:14:06.891Z,23.4
2022-08-20T11:15:12.393Z,23.8
2022-08-20T11:16:11.802Z,24.1
2022-08-20T11:17:15.713Z,24.1
2022-08-20T11:18:11.932Z,24.1
2022-08-20T11:19:07.275Z,23.7
2022-08-20T11:20:12.110Z,23.4
2022-08-20T11:21:07.253Z,23.4
2022-08-20T11:22:13.182Z,23.9
2022-08-20T11:23:07.470Z,24.3
2022-08-20T11:24:12.257Z,24.6
2022-08-20T11:25:07.334Z,24.7
2022-08-20T11:26:17.503Z,24.9
2022-08-20T11:27:07.445Z,24.7
2022-08-20T11:28:07.722Z,24.6
2022-08-20T11:29:07.646Z,24.5
2022-08-20T11:30:07.648Z,24.5
2022-08-20T11:31:09.382Z,24.7
2022-08-20T11:32:07.917Z,24.5
2022-08-20T11:33:08.120Z,24.2
2022-08-20T11:34:12.147Z,24.6
2022-08-20T11:35:38.754Z,24.7
2022-08-20T11:36:12.948Z,24.9
2022-08-20T11:37:08.251Z,25
2022-08-20T11:38:08.056Z,24.8
2022-08-20T11:39:13.207Z,25.2
2022-08-20T11:40:10.433Z,25.6
2022-08-20T11:41:16.325Z,25.6
2022-08-20T11:42:18.434Z,25.5
2022-08-20T11:43:14.981Z,25.4
2022-08-20T11:44:20.004Z,25.6
2022-08-20T11:45:09.091Z,25.6
2022-08-20T11:46:10.206Z,25.3
2022-08-20T11:47:10.733Z,24.8
2022-08-20T11:48:11.819Z,24.4
2022-08-20T11:49:08.596Z,24.4
2022-08-20T11:50:10.313Z,24.8
2022-08-20T11:51:08.823Z,24.8
2022-08-20T11:52:09.706Z,24.4
2022-08-20T11:53:08.954Z,24
2022-08-20T11:54:10.017Z,23.9
2022-08-20T11:55:12.219Z,24.4
2022-08-20T11:56:09.319Z,25
2022-08-20T11:57:14.534Z,25.1
2022-08-20T11:58:11.457Z,25.5
2022-08-20T11:59:09.243Z,25.8
2022-08-20T12:00:09.958Z,26.1
2022-08-20T12:01:10.858Z,26
2022-08-20T12:02:12.416Z,26.1
2022-08-20T12:03:12.221Z,25.9
2022-08-20T12:04:09.428Z,25.2
2022-08-20T12:05:14.710Z,24.6
2022-08-20T12:06:10.995Z,24.2
2022-08-20T12:07:10.975Z,24.1
2022-08-20T12:08:25.026Z,24.6
2022-08-20T12:09:11.353Z,24.8
2022-08-20T12:10:09.737Z,24.6
2022-08-20T12:11:16.085Z,24.8
2022-08-20T12:12:12.507Z,24.9
2022-08-20T12:13:12.545Z,25.2
2022-08-20T12:14:24.038Z,25.3
2022-08-20T12:15:12.146Z,25.7
2022-08-20T12:16:12.774Z,25.6
2022-08-20T12:17:10.677Z,25.6
2022-08-20T12:18:10.252Z,25.8
2022-08-20T12:19:10.412Z,26
2022-08-20T12:20:10.659Z,25.8
2022-08-20T12:21:11.062Z,25.9
2022-08-20T12:22:20.494Z,26.2
2022-08-20T12:23:10.551Z,26
2022-08-20T12:24:11.656Z,26.6
2022-08-20T12:25:10.827Z,26.5
2022-08-20T12:26:10.678Z,26.1
2022-08-20T12:27:10.729Z,25.6
2022-08-20T12:28:26.784Z,25.2
2022-08-20T12:29:10.820Z,24.8
2022-08-20T12:30:15.880Z,24.1
2022-08-20T12:31:15.984Z,24.1
2022-08-20T12:32:11.000Z,24
2022-08-20T12:33:21.482Z,23.9
2022-08-20T12:34:14.193Z,23.7
2022-08-20T12:35:11.156Z,23.6
2022-08-20T12:36:12.921Z,24.2
2022-08-20T12:37:15.380Z,24.6
2022-08-20T12:38:11.332Z,24.9
2022-08-20T12:39:11.343Z,24.9
2022-08-20T12:40:12.956Z,24.5
2022-08-20T12:41:12.327Z,24.5
2022-08-20T12:42:11.580Z,24.2
2022-08-20T12:43:11.651Z,24
2022-08-20T12:44:13.479Z,24
2022-08-20T12:45:13.468Z,24
2022-08-20T12:46:13.313Z,24.3
2022-08-20T12:47:13.169Z,24.4
2022-08-20T12:48:11.850Z,24.6
2022-08-20T12:49:13.840Z,24.5
2022-08-20T12:50:16.966Z,24.4
2022-08-20T12:51:12.008Z,24.2
2022-08-20T12:52:12.723Z,24.5
2022-08-20T12:53:14.094Z,25
2022-08-20T12:54:13.400Z,25
2022-08-20T12:55:12.234Z,24.9
2022-08-20T12:56:12.324Z,25.3
2022-08-20T12:57:17.627Z,25.9
2022-08-20T12:58:12.499Z,26.1
2022-08-20T12:59:12.770Z,26.3
2022-08-20T13:00:12.544Z,26.2
2022-08-20T13:02:47.770Z,25.8
2022-08-20T13:06:08.638Z,26.2
2022-08-20T13:07:00.562Z,26
2022-08-20T13:07:12.931Z,26.5
2022-08-20T13:08:19.021Z,26.3
2022-08-20T13:09:13.515Z,25.4
2022-08-20T13:10:58.443Z,24.8
2022-08-20T13:12:38.372Z,24.6
2022-08-20T13:12:38.679Z,24.5
2022-08-20T13:13:13.265Z,24.2
2022-08-20T13:14:14.421Z,24.1
2022-08-20T13:15:28.360Z,24.3
2022-08-20T13:16:13.430Z,24.5
2022-08-20T13:24:19.477Z,26.1
2022-08-20T13:25:19.030Z,26.2
2022-08-20T13:26:14.284Z,26.4
2022-08-20T13:27:14.057Z,26.1
2022-08-20T13:28:21.695Z,25.5
2022-08-20T13:29:14.841Z,25.4
2022-08-20T13:30:30.577Z,25.1
2022-08-20T13:31:15.902Z,25.1
2022-08-20T13:32:21.787Z,25.3
2022-08-20T13:33:14.289Z,25.8
2022-08-20T13:34:15.940Z,25.9
2022-08-20T13:35:16.886Z,25.8
2022-08-20T13:36:15.825Z,25.5
2022-08-20T13:37:16.696Z,25.2
2022-08-20T13:38:14.491Z,24.8
2022-08-20T13:39:14.532Z,24.4
2022-08-20T13:40:14.648Z,24.3
2022-08-20T13:41:19.872Z,24.3
2022-08-20T13:42:14.716Z,24.2
2022-08-20T13:43:14.760Z,24.1
2022-08-20T13:44:14.805Z,23.9
2022-08-20T13:45:14.814Z,23.9